sensor_id;sensor_type;location;lat;lon;timestamp;temperature;humidity
16511;DHT22;8368;48.772;8.754;2022-07-29T00:00:02;17.10;99.90
16511;DHT22;8368;48.772;8.754;2022-07-29T00:02:28;17.20;99.90
16511;DHT22;8368;48.772;8.754;2022-07-29T00:04:54;17.10;99.90
16511;DHT22;8368;48.772;8.754;2022-07-29T00:07:20;17.20;99.90
16511;DHT22;8368;48.772;8.754;2022-07-29T00:09:45;17.20;99.90
16511;DHT22;8368;48.772;8.754;2022-07-29T00:12:11;17.20;99.90
16511;DHT22;8368;48.772;8.754;2022-07-29T00:14:37;17.30;99.90
16511;DHT22;8368;48.772;8.754;2022-07-29T00:17:02;17.20;99.90
16511;DHT22;8368;48.772;8.754;2022-07-29T00:19:28;17.20;99.90
16511;DHT22;8368;48.772;8.754;2022-07-29T00:21:53;17.30;99.90
16511;DHT22;8368;48.772;8.754;2022-07-29T00:24:19;17.30;99.90
16511;DHT22;8368;48.772;8.754;2022-07-29T00:26:45;17.40;99.90
16511;DHT22;8368;48.772;8.754;2022-07-29T00:29:10;17.40;99.90
16511;DHT22;8368;48.772;8.754;2022-07-29T00:31:36;17.40;99.90
16511;DHT22;8368;48.772;8.754;2022-07-29T00:34:02;17.40;99.90
16511;DHT22;8368;48.772;8.754;2022-07-29T00:36:28;17.30;99.90
16511;DHT22;8368;48.772;8.754;2022-07-29T00:38:54;17.40;99.90
16511;DHT22;8368;48.772;8.754;2022-07-29T00:41:19;17.40;99.90
16511;DHT22;8368;48.772;8.754;2022-07-29T00:43:46;17.30;99.90
16511;DHT22;8368;48.772;8.754;2022-07-29T00:46:11;17.40;99.90
16511;DHT22;8368;48.772;8.754;2022-07-29T00:48:39;17.40;99.90
16511;DHT22;8368;48.772;8.754;2022-07-29T00:51:06;17.30;99.90
16511;DHT22;8368;48.772;8.754;2022-07-29T00:53:32;17.30;99.90
16511;DHT22;8368;48.772;8.754;2022-07-29T00:55:59;17.20;99.90
16511;DHT22;8368;48.772;8.754;2022-07-29T00:58:26;17.30;99.90
16511;DHT22;8368;48.772;8.754;2022-07-29T01:00:52;17.30;99.90
16511;DHT22;8368;48.772;8.754;2022-07-29T01:03:18;17.30;99.90
16511;DHT22;8368;48.772;8.754;2022-07-29T01:05:44;17.30;99.90
16511;DHT22;8368;48.772;8.754;2022-07-29T01:08:12;17.30;99.90
16511;DHT22;8368;48.772;8.754;2022-07-29T01:10:39;17.30;99.90
16511;DHT22;8368;48.772;8.754;2022-07-29T01:13:06;17.20;99.90
16511;DHT22;8368;48.772;8.754;2022-07-29T01:15:34;17.20;99.90
16511;DHT22;8368;48.772;8.754;2022-07-29T01:18:09;17.10;99.90
16511;DHT22;8368;48.772;8.754;2022-07-29T01:23:38;17.20;99.90
16511;DHT22;8368;48.772;8.754;2022-07-29T01:31:46;17.10;99.90
16511;DHT22;8368;48.772;8.754;2022-07-29T01:34:20;17.10;99.90
16511;DHT22;8368;48.772;8.754;2022-07-29T01:36:55;17.00;99.90
16511;DHT22;8368;48.772;8.754;2022-07-29T01:39:35;17.00;99.90
16511;DHT22;8368;48.772;8.754;2022-07-29T01:42:27;17.00;99.90
16511;DHT22;8368;48.772;8.754;2022-07-29T01:47:40;17.00;99.90
16511;DHT22;8368;48.772;8.754;2022-07-29T01:50:11;16.90;99.90
16511;DHT22;8368;48.772;8.754;2022-07-29T01:52:44;16.90;99.90
16511;DHT22;8368;48.772;8.754;2022-07-29T01:55:15;16.90;99.90
16511;DHT22;8368;48.772;8.754;2022-07-29T01:57:44;16.90;99.90
16511;DHT22;8368;48.772;8.754;2022-07-29T02:00:10;17.00;99.90
16511;DHT22;8368;48.772;8.754;2022-07-29T02:02:39;16.90;99.90
16511;DHT22;8368;48.772;8.754;2022-07-29T02:05:08;16.90;99.90
16511;DHT22;8368;48.772;8.754;2022-07-29T02:07:37;16.90;99.90
16511;DHT22;8368;48.772;8.754;2022-07-29T02:10:04;17.00;99.90
16511;DHT22;8368;48.772;8.754;2022-07-29T02:12:31;17.00;99.90
16511;DHT22;8368;48.772;8.754;2022-07-29T02:15:00;17.00;99.90
16511;DHT22;8368;48.772;8.754;2022-07-29T02:17:33;17.10;99.90
16511;DHT22;8368;48.772;8.754;2022-07-29T02:20:03;17.10;99.90
16511;DHT22;8368;48.772;8.754;2022-07-29T02:22:33;17.20;99.90
16511;DHT22;8368;48.772;8.754;2022-07-29T02:25:00;17.20;99.90
16511;DHT22;8368;48.772;8.754;2022-07-29T02:27:28;17.20;99.90
16511;DHT22;8368;48.772;8.754;2022-07-29T02:29:55;17.30;99.90
16511;DHT22;8368;48.772;8.754;2022-07-29T02:32:24;17.30;99.90
16511;DHT22;8368;48.772;8.754;2022-07-29T02:34:51;17.30;99.90
16511;DHT22;8368;48.772;8.754;2022-07-29T02:37:18;17.40;99.90
16511;DHT22;8368;48.772;8.754;2022-07-29T02:39:44;17.40;99.90
16511;DHT22;8368;48.772;8.754;2022-07-29T02:42:15;17.40;99.90
16511;DHT22;8368;48.772;8.754;2022-07-29T02:44:41;17.40;99.90
16511;DHT22;8368;48.772;8.754;2022-07-29T02:49:41;17.40;99.90
16511;DHT22;8368;48.772;8.754;2022-07-29T02:52:34;17.40;99.90
16511;DHT22;8368;48.772;8.754;2022-07-29T02:57:47;17.50;99.90
16511;DHT22;8368;48.772;8.754;2022-07-29T03:00:15;17.40;99.90
16511;DHT22;8368;48.772;8.754;2022-07-29T03:02:44;17.40;99.90
16511;DHT22;8368;48.772;8.754;2022-07-29T03:05:18;17.40;99.90
16511;DHT22;8368;48.772;8.754;2022-07-29T03:07:49;17.40;99.90
16511;DHT22;8368;48.772;8.754;2022-07-29T03:10:16;17.40;99.90
16511;DHT22;8368;48.772;8.754;2022-07-29T03:12:43;17.30;99.90
16511;DHT22;8368;48.772;8.754;2022-07-29T03:15:09;17.40;99.90
16511;DHT22;8368;48.772;8.754;2022-07-29T03:17:35;17.40;99.90
16511;DHT22;8368;48.772;8.754;2022-07-29T03:20:02;17.30;99.90
16511;DHT22;8368;48.772;8.754;2022-07-29T03:22:29;17.30;99.90
16511;DHT22;8368;48.772;8.754;2022-07-29T03:24:54;17.40;99.90
16511;DHT22;8368;48.772;8.754;2022-07-29T03:27:20;17.40;99.90
16511;DHT22;8368;48.772;8.754;2022-07-29T03:29:46;17.40;99.90
16511;DHT22;8368;48.772;8.754;2022-07-29T03:32:11;17.40;99.90
16511;DHT22;8368;48.772;8.754;2022-07-29T03:34:37;17.30;99.90
16511;DHT22;8368;48.772;8.754;2022-07-29T03:37:03;17.30;99.90
16511;DHT22;8368;48.772;8.754;2022-07-29T03:39:31;17.20;99.90
16511;DHT22;8368;48.772;8.754;2022-07-29T03:41:59;17.20;99.90
16511;DHT22;8368;48.772;8.754;2022-07-29T03:44:27;17.20;99.90
16511;DHT22;8368;48.772;8.754;2022-07-29T03:46:54;17.00;99.90
16511;DHT22;8368;48.772;8.754;2022-07-29T03:49:22;17.00;99.90
16511;DHT22;8368;48.772;8.754;2022-07-29T03:51:48;16.90;99.90
16511;DHT22;8368;48.772;8.754;2022-07-29T03:54:14;16.90;99.90
16511;DHT22;8368;48.772;8.754;2022-07-29T03:56:43;16.80;99.90
16511;DHT22;8368;48.772;8.754;2022-07-29T03:59:13;16.70;99.90
16511;DHT22;8368;48.772;8.754;2022-07-29T04:01:41;16.70;99.90
16511;DHT22;8368;48.772;8.754;2022-07-29T04:04:07;16.60;99.90
16511;DHT22;8368;48.772;8.754;2022-07-29T04:06:43;16.50;99.90
16511;DHT22;8368;48.772;8.754;2022-07-29T04:09:10;16.50;99.90
16511;DHT22;8368;48.772;8.754;2022-07-29T04:11:38;16.50;99.90
16511;DHT22;8368;48.772;8.754;2022-07-29T04:14:04;16.40;99.90
16511;DHT22;8368;48.772;8.754;2022-07-29T04:16:30;16.40;99.90
16511;DHT22;8368;48.772;8.754;2022-07-29T04:18:55;16.40;99.90
16511;DHT22;8368;48.772;8.754;2022-07-29T04:21:21;16.40;99.90
16511;DHT22;8368;48.772;8.754;2022-07-29T04:23:46;16.40;99.90
16511;DHT22;8368;48.772;8.754;2022-07-29T04:26:16;16.40;99.90
16511;DHT22;8368;48.772;8.754;2022-07-29T04:28:41;16.40;99.90
16511;DHT22;8368;48.772;8.754;2022-07-29T04:31:08;16.40;99.90
16511;DHT22;8368;48.772;8.754;2022-07-29T04:33:33;16.30;99.90
16511;DHT22;8368;48.772;8.754;2022-07-29T04:35:59;16.30;99.90
16511;DHT22;8368;48.772;8.754;2022-07-29T04:38:24;16.20;99.90
16511;DHT22;8368;48.772;8.754;2022-07-29T04:40:50;16.20;99.90
16511;DHT22;8368;48.772;8.754;2022-07-29T04:43:16;16.20;99.90
16511;DHT22;8368;48.772;8.754;2022-07-29T04:45:42;16.20;99.90
16511;DHT22;8368;48.772;8.754;2022-07-29T04:48:07;16.20;99.90
16511;DHT22;8368;48.772;8.754;2022-07-29T04:50:33;16.30;99.90
16511;DHT22;8368;48.772;8.754;2022-07-29T04:52:59;16.20;99.90
16511;DHT22;8368;48.772;8.754;2022-07-29T04:55:24;16.30;99.90
16511;DHT22;8368;48.772;8.754;2022-07-29T04:57:50;16.30;99.90
16511;DHT22;8368;48.772;8.754;2022-07-29T05:00:16;16.30;99.90
16511;DHT22;8368;48.772;8.754;2022-07-29T05:02:42;16.40;99.90
16511;DHT22;8368;48.772;8.754;2022-07-29T05:05:08;16.40;99.90
16511;DHT22;8368;48.772;8.754;2022-07-29T05:07:34;16.50;99.90
16511;DHT22;8368;48.772;8.754;2022-07-29T05:09:59;16.40;99.90
16511;DHT22;8368;48.772;8.754;2022-07-29T05:12:25;16.50;99.90
16511;DHT22;8368;48.772;8.754;2022-07-29T05:14:51;16.60;99.90
16511;DHT22;8368;48.772;8.754;2022-07-29T05:17:17;16.60;99.90
16511;DHT22;8368;48.772;8.754;2022-07-29T05:19:43;16.80;99.90
16511;DHT22;8368;48.772;8.754;2022-07-29T05:22:09;16.80;99.90
16511;DHT22;8368;48.772;8.754;2022-07-29T05:24:34;16.90;99.90
16511;DHT22;8368;48.772;8.754;2022-07-29T05:27:00;17.10;99.90
16511;DHT22;8368;48.772;8.754;2022-07-29T05:29:26;17.20;99.90
16511;DHT22;8368;48.772;8.754;2022-07-29T05:31:51;17.20;99.90
16511;DHT22;8368;48.772;8.754;2022-07-29T05:34:18;17.30;99.90
16511;DHT22;8368;48.772;8.754;2022-07-29T05:36:44;17.40;99.90
16511;DHT22;8368;48.772;8.754;2022-07-29T05:39:10;17.50;99.90
16511;DHT22;8368;48.772;8.754;2022-07-29T05:41:36;17.60;99.90
16511;DHT22;8368;48.772;8.754;2022-07-29T05:44:01;17.50;99.90
16511;DHT22;8368;48.772;8.754;2022-07-29T05:46:27;17.60;99.90
16511;DHT22;8368;48.772;8.754;2022-07-29T05:48:53;17.70;99.90
16511;DHT22;8368;48.772;8.754;2022-07-29T05:51:19;17.70;99.90
16511;DHT22;8368;48.772;8.754;2022-07-29T05:53:44;17.80;99.90
16511;DHT22;8368;48.772;8.754;2022-07-29T05:56:10;17.90;99.90
16511;DHT22;8368;48.772;8.754;2022-07-29T05:58:36;18.00;99.90
16511;DHT22;8368;48.772;8.754;2022-07-29T06:01:02;18.10;99.90
16511;DHT22;8368;48.772;8.754;2022-07-29T06:03:28;18.20;99.90
16511;DHT22;8368;48.772;8.754;2022-07-29T06:05:53;18.30;99.90
16511;DHT22;8368;48.772;8.754;2022-07-29T06:08:19;18.30;99.90
16511;DHT22;8368;48.772;8.754;2022-07-29T06:10:45;18.50;99.90
16511;DHT22;8368;48.772;8.754;2022-07-29T06:13:12;18.50;99.90
16511;DHT22;8368;48.772;8.754;2022-07-29T06:15:37;18.50;99.90
16511;DHT22;8368;48.772;8.754;2022-07-29T06:18:03;18.60;99.90
16511;DHT22;8368;48.772;8.754;2022-07-29T06:20:30;18.60;99.90
16511;DHT22;8368;48.772;8.754;2022-07-29T06:22:56;18.50;99.90
16511;DHT22;8368;48.772;8.754;2022-07-29T06:25:22;18.50;99.90
16511;DHT22;8368;48.772;8.754;2022-07-29T06:27:47;18.50;99.90
16511;DHT22;8368;48.772;8.754;2022-07-29T06:30:13;18.60;99.90
16511;DHT22;8368;48.772;8.754;2022-07-29T06:32:40;18.60;99.90
16511;DHT22;8368;48.772;8.754;2022-07-29T06:35:06;18.70;99.90
16511;DHT22;8368;48.772;8.754;2022-07-29T06:37:32;18.80;99.90
16511;DHT22;8368;48.772;8.754;2022-07-29T06:39:57;18.90;99.90
16511;DHT22;8368;48.772;8.754;2022-07-29T06:42:43;19.10;99.90
16511;DHT22;8368;48.772;8.754;2022-07-29T06:45:09;19.20;99.90
16511;DHT22;8368;48.772;8.754;2022-07-29T06:47:35;19.40;99.90
16511;DHT22;8368;48.772;8.754;2022-07-29T06:50:01;19.50;99.90
16511;DHT22;8368;48.772;8.754;2022-07-29T06:52:26;19.60;99.90
16511;DHT22;8368;48.772;8.754;2022-07-29T06:54:52;19.70;99.90
16511;DHT22;8368;48.772;8.754;2022-07-29T06:57:18;19.60;99.90
16511;DHT22;8368;48.772;8.754;2022-07-29T06:59:43;19.60;99.90
16511;DHT22;8368;48.772;8.754;2022-07-29T07:02:09;19.70;99.90
16511;DHT22;8368;48.772;8.754;2022-07-29T07:04:34;19.50;99.90
16511;DHT22;8368;48.772;8.754;2022-07-29T07:07:00;19.50;99.90
16511;DHT22;8368;48.772;8.754;2022-07-29T07:09:25;19.60;99.90
16511;DHT22;8368;48.772;8.754;2022-07-29T07:11:51;19.70;99.90
16511;DHT22;8368;48.772;8.754;2022-07-29T07:14:16;19.90;99.90
16511;DHT22;8368;48.772;8.754;2022-07-29T07:16:42;20.00;99.90
16511;DHT22;8368;48.772;8.754;2022-07-29T07:19:07;20.30;99.90
16511;DHT22;8368;48.772;8.754;2022-07-29T07:21:33;20.50;99.90
16511;DHT22;8368;48.772;8.754;2022-07-29T07:23:59;20.50;99.90
16511;DHT22;8368;48.772;8.754;2022-07-29T07:26:25;20.70;99.90
16511;DHT22;8368;48.772;8.754;2022-07-29T07:28:51;20.80;99.90
16511;DHT22;8368;48.772;8.754;2022-07-29T07:31:16;20.90;99.90
16511;DHT22;8368;48.772;8.754;2022-07-29T07:33:42;20.80;99.90
16511;DHT22;8368;48.772;8.754;2022-07-29T07:36:08;20.80;99.90
16511;DHT22;8368;48.772;8.754;2022-07-29T07:38:33;20.90;99.90
16511;DHT22;8368;48.772;8.754;2022-07-29T07:40:59;21.00;99.90
16511;DHT22;8368;48.772;8.754;2022-07-29T07:43:25;21.30;99.90
16511;DHT22;8368;48.772;8.754;2022-07-29T07:45:53;21.30;99.90
16511;DHT22;8368;48.772;8.754;2022-07-29T07:48:18;21.30;99.90
16511;DHT22;8368;48.772;8.754;2022-07-29T07:50:44;21.40;99.90
16511;DHT22;8368;48.772;8.754;2022-07-29T07:53:09;21.50;99.90
16511;DHT22;8368;48.772;8.754;2022-07-29T07:55:40;21.70;99.90
16511;DHT22;8368;48.772;8.754;2022-07-29T07:58:06;21.90;99.90
16511;DHT22;8368;48.772;8.754;2022-07-29T08:00:31;22.00;99.90
16511;DHT22;8368;48.772;8.754;2022-07-29T08:02:58;22.30;99.90
16511;DHT22;8368;48.772;8.754;2022-07-29T08:05:23;22.40;99.90
16511;DHT22;8368;48.772;8.754;2022-07-29T08:07:55;22.60;99.90
16511;DHT22;8368;48.772;8.754;2022-07-29T08:10:20;22.70;99.90
16511;DHT22;8368;48.772;8.754;2022-07-29T08:13:09;22.70;99.90
16511;DHT22;8368;48.772;8.754;2022-07-29T08:15:36;22.70;99.90
16511;DHT22;8368;48.772;8.754;2022-07-29T08:18:02;22.60;99.90
16511;DHT22;8368;48.772;8.754;2022-07-29T08:20:28;22.50;99.90
16511;DHT22;8368;48.772;8.754;2022-07-29T08:22:55;22.60;99.90
16511;DHT22;8368;48.772;8.754;2022-07-29T08:25:20;22.50;99.90
16511;DHT22;8368;48.772;8.754;2022-07-29T08:27:47;22.50;99.90
16511;DHT22;8368;48.772;8.754;2022-07-29T08:30:13;22.60;99.90
16511;DHT22;8368;48.772;8.754;2022-07-29T08:32:38;22.60;99.90
16511;DHT22;8368;48.772;8.754;2022-07-29T08:35:04;22.60;99.90
16511;DHT22;8368;48.772;8.754;2022-07-29T08:37:30;22.80;99.90
16511;DHT22;8368;48.772;8.754;2022-07-29T08:39:56;22.80;99.90
16511;DHT22;8368;48.772;8.754;2022-07-29T08:42:21;22.80;99.90
16511;DHT22;8368;48.772;8.754;2022-07-29T08:44:48;23.00;99.90
16511;DHT22;8368;48.772;8.754;2022-07-29T08:47:14;23.00;99.90
16511;DHT22;8368;48.772;8.754;2022-07-29T08:49:40;23.10;99.90
16511;DHT22;8368;48.772;8.754;2022-07-29T08:52:06;23.10;99.90
16511;DHT22;8368;48.772;8.754;2022-07-29T08:54:32;23.30;99.90
16511;DHT22;8368;48.772;8.754;2022-07-29T08:56:58;23.40;99.90
16511;DHT22;8368;48.772;8.754;2022-07-29T08:59:26;23.40;99.90
16511;DHT22;8368;48.772;8.754;2022-07-29T09:01:53;23.40;99.90
16511;DHT22;8368;48.772;8.754;2022-07-29T09:04:20;23.30;99.90
16511;DHT22;8368;48.772;8.754;2022-07-29T09:06:51;23.50;99.90
16511;DHT22;8368;48.772;8.754;2022-07-29T09:09:19;23.40;99.90
16511;DHT22;8368;48.772;8.754;2022-07-29T09:11:45;23.30;99.90
16511;DHT22;8368;48.772;8.754;2022-07-29T09:14:12;23.50;99.90
16511;DHT22;8368;48.772;8.754;2022-07-29T09:16:53;23.60;99.90
16511;DHT22;8368;48.772;8.754;2022-07-29T09:19:30;23.60;99.90
16511;DHT22;8368;48.772;8.754;2022-07-29T09:21:58;23.70;99.90
16511;DHT22;8368;48.772;8.754;2022-07-29T09:24:25;23.50;99.90
16511;DHT22;8368;48.772;8.754;2022-07-29T09:26:51;23.40;99.90
16511;DHT22;8368;48.772;8.754;2022-07-29T09:29:23;23.50;99.90
16511;DHT22;8368;48.772;8.754;2022-07-29T09:31:51;23.40;99.90
16511;DHT22;8368;48.772;8.754;2022-07-29T09:34:25;23.40;99.90
16511;DHT22;8368;48.772;8.754;2022-07-29T09:36:52;23.30;99.90
16511;DHT22;8368;48.772;8.754;2022-07-29T09:39:38;23.40;99.90
16511;DHT22;8368;48.772;8.754;2022-07-29T09:42:10;23.50;99.90
16511;DHT22;8368;48.772;8.754;2022-07-29T09:44:46;23.70;99.90
16511;DHT22;8368;48.772;8.754;2022-07-29T09:47:13;23.90;99.90
16511;DHT22;8368;48.772;8.754;2022-07-29T09:49:57;23.90;99.90
16511;DHT22;8368;48.772;8.754;2022-07-29T09:52:25;24.20;99.90
16511;DHT22;8368;48.772;8.754;2022-07-29T09:54:51;24.30;99.90
16511;DHT22;8368;48.772;8.754;2022-07-29T09:57:27;24.50;99.90
16511;DHT22;8368;48.772;8.754;2022-07-29T10:00:04;24.60;99.90
16511;DHT22;8368;48.772;8.754;2022-07-29T10:02:36;24.70;99.90
16511;DHT22;8368;48.772;8.754;2022-07-29T10:05:04;24.60;99.90
16511;DHT22;8368;48.772;8.754;2022-07-29T10:07:48;24.60;99.90
16511;DHT22;8368;48.772;8.754;2022-07-29T10:10:25;24.60;99.90
16511;DHT22;8368;48.772;8.754;2022-07-29T10:13:03;24.60;99.90
16511;DHT22;8368;48.772;8.754;2022-07-29T10:15:31;24.70;99.90
16511;DHT22;8368;48.772;8.754;2022-07-29T10:17:58;24.80;99.90
16511;DHT22;8368;48.772;8.754;2022-07-29T10:20:26;24.80;99.90
16511;DHT22;8368;48.772;8.754;2022-07-29T10:22:52;24.90;99.90
16511;DHT22;8368;48.772;8.754;2022-07-29T10:25:19;24.80;99.90
16511;DHT22;8368;48.772;8.754;2022-07-29T10:27:46;24.80;99.90
16511;DHT22;8368;48.772;8.754;2022-07-29T10:30:13;24.70;99.90
16511;DHT22;8368;48.772;8.754;2022-07-29T10:33:04;24.60;99.90
16511;DHT22;8368;48.772;8.754;2022-07-29T10:36:01;24.50;99.90
16511;DHT22;8368;48.772;8.754;2022-07-29T10:39:05;24.70;99.90
16511;DHT22;8368;48.772;8.754;2022-07-29T10:42:11;24.70;99.90
16511;DHT22;8368;48.772;8.754;2022-07-29T10:44:40;24.60;99.90
16511;DHT22;8368;48.772;8.754;2022-07-29T10:47:07;24.40;99.90
16511;DHT22;8368;48.772;8.754;2022-07-29T10:49:33;24.40;99.90
16511;DHT22;8368;48.772;8.754;2022-07-29T10:52:07;24.20;99.90
16511;DHT22;8368;48.772;8.754;2022-07-29T10:59:44;23.90;99.90
16511;DHT22;8368;48.772;8.754;2022-07-29T11:05:14;23.90;99.90
16511;DHT22;8368;48.772;8.754;2022-07-29T11:10:41;24.10;99.90
16511;DHT22;8368;48.772;8.754;2022-07-29T11:13:07;24.10;99.90
16511;DHT22;8368;48.772;8.754;2022-07-29T11:15:56;24.10;99.90
16511;DHT22;8368;48.772;8.754;2022-07-29T11:18:23;23.90;99.90
16511;DHT22;8368;48.772;8.754;2022-07-29T11:20:50;23.80;99.90
16511;DHT22;8368;48.772;8.754;2022-07-29T11:26:17;23.70;99.90
16511;DHT22;8368;48.772;8.754;2022-07-29T11:31:45;23.70;99.90
16511;DHT22;8368;48.772;8.754;2022-07-29T11:34:25;23.90;99.90
16511;DHT22;8368;48.772;8.754;2022-07-29T11:39:41;24.80;99.90
16511;DHT22;8368;48.772;8.754;2022-07-29T11:44:58;25.20;99.90
16511;DHT22;8368;48.772;8.754;2022-07-29T11:47:35;25.60;99.90
16511;DHT22;8368;48.772;8.754;2022-07-29T11:50:11;25.70;99.90
16511;DHT22;8368;48.772;8.754;2022-07-29T11:52:38;25.90;99.90
16511;DHT22;8368;48.772;8.754;2022-07-29T11:55:10;26.00;99.90
16511;DHT22;8368;48.772;8.754;2022-07-29T11:57:35;26.00;99.90
16511;DHT22;8368;48.772;8.754;2022-07-29T12:00:06;25.70;99.90
16511;DHT22;8368;48.772;8.754;2022-07-29T12:02:41;25.60;99.90
16511;DHT22;8368;48.772;8.754;2022-07-29T12:05:08;25.20;99.90
16511;DHT22;8368;48.772;8.754;2022-07-29T12:07:35;24.90;99.90
16511;DHT22;8368;48.772;8.754;2022-07-29T12:10:03;24.60;99.90
16511;DHT22;8368;48.772;8.754;2022-07-29T12:12:29;24.60;99.90
16511;DHT22;8368;48.772;8.754;2022-07-29T12:14:54;24.60;99.90
16511;DHT22;8368;48.772;8.754;2022-07-29T12:17:34;24.70;99.90
16511;DHT22;8368;48.772;8.754;2022-07-29T12:20:04;24.70;99.90
16511;DHT22;8368;48.772;8.754;2022-07-29T12:22:32;24.70;99.90
16511;DHT22;8368;48.772;8.754;2022-07-29T12:25:12;24.80;99.90
16511;DHT22;8368;48.772;8.754;2022-07-29T12:27:40;24.70;99.90
16511;DHT22;8368;48.772;8.754;2022-07-29T12:30:08;24.70;99.90
16511;DHT22;8368;48.772;8.754;2022-07-29T12:32:45;24.50;99.90
16511;DHT22;8368;48.772;8.754;2022-07-29T12:35:14;24.50;99.90
16511;DHT22;8368;48.772;8.754;2022-07-29T12:37:42;24.30;99.90
16511;DHT22;8368;48.772;8.754;2022-07-29T12:40:10;24.30;99.90
16511;DHT22;8368;48.772;8.754;2022-07-29T12:42:36;24.30;99.90
16511;DHT22;8368;48.772;8.754;2022-07-29T12:45:03;24.40;99.90
16511;DHT22;8368;48.772;8.754;2022-07-29T12:47:29;24.50;99.90
16511;DHT22;8368;48.772;8.754;2022-07-29T12:50:14;24.60;99.90
16511;DHT22;8368;48.772;8.754;2022-07-29T12:52:43;24.90;99.90
16511;DHT22;8368;48.772;8.754;2022-07-29T12:55:09;25.00;99.90
16511;DHT22;8368;48.772;8.754;2022-07-29T12:57:49;25.10;99.90
16511;DHT22;8368;48.772;8.754;2022-07-29T13:00:23;25.10;99.90
16511;DHT22;8368;48.772;8.754;2022-07-29T13:02:57;24.80;99.90
16511;DHT22;8368;48.772;8.754;2022-07-29T13:05:23;24.50;99.90
16511;DHT22;8368;48.772;8.754;2022-07-29T13:07:49;24.40;99.90
16511;DHT22;8368;48.772;8.754;2022-07-29T13:10:20;24.30;99.90
16511;DHT22;8368;48.772;8.754;2022-07-29T13:13:14;24.30;99.90
16511;DHT22;8368;48.772;8.754;2022-07-29T13:15:44;24.00;99.90
16511;DHT22;8368;48.772;8.754;2022-07-29T13:18:33;23.90;99.90
16511;DHT22;8368;48.772;8.754;2022-07-29T13:21:14;23.80;99.90
16511;DHT22;8368;48.772;8.754;2022-07-29T13:23:41;24.00;99.90
16511;DHT22;8368;48.772;8.754;2022-07-29T13:26:10;24.10;99.90
16511;DHT22;8368;48.772;8.754;2022-07-29T13:28:45;24.30;99.90
16511;DHT22;8368;48.772;8.754;2022-07-29T13:31:13;24.40;99.90
16511;DHT22;8368;48.772;8.754;2022-07-29T13:33:42;24.60;99.90
16511;DHT22;8368;48.772;8.754;2022-07-29T13:36:16;24.70;99.90
16511;DHT22;8368;48.772;8.754;2022-07-29T13:38:49;24.70;99.90
16511;DHT22;8368;48.772;8.754;2022-07-29T13:41:15;24.70;99.90
16511;DHT22;8368;48.772;8.754;2022-07-29T13:43:41;24.70;99.90
16511;DHT22;8368;48.772;8.754;2022-07-29T13:46:07;24.90;99.90
16511;DHT22;8368;48.772;8.754;2022-07-29T13:48:33;25.10;99.90
16511;DHT22;8368;48.772;8.754;2022-07-29T13:51:01;25.20;99.90
16511;DHT22;8368;48.772;8.754;2022-07-29T13:53:29;25.20;99.90
16511;DHT22;8368;48.772;8.754;2022-07-29T13:55:58;25.20;99.90
16511;DHT22;8368;48.772;8.754;2022-07-29T13:58:33;25.20;99.90
16511;DHT22;8368;48.772;8.754;2022-07-29T14:00:59;25.20;99.90
16511;DHT22;8368;48.772;8.754;2022-07-29T14:03:26;25.30;99.90
16511;DHT22;8368;48.772;8.754;2022-07-29T14:05:53;25.30;99.90
16511;DHT22;8368;48.772;8.754;2022-07-29T14:08:22;25.30;99.90
16511;DHT22;8368;48.772;8.754;2022-07-29T14:11:00;25.40;99.90
16511;DHT22;8368;48.772;8.754;2022-07-29T14:13:36;25.30;99.90
16511;DHT22;8368;48.772;8.754;2022-07-29T14:16:02;25.40;99.90
16511;DHT22;8368;48.772;8.754;2022-07-29T14:18:29;25.40;99.90
16511;DHT22;8368;48.772;8.754;2022-07-29T14:21:03;25.40;99.90
16511;DHT22;8368;48.772;8.754;2022-07-29T14:23:34;25.50;99.90
16511;DHT22;8368;48.772;8.754;2022-07-29T14:26:00;25.40;99.90
16511;DHT22;8368;48.772;8.754;2022-07-29T14:28:28;25.40;99.90
16511;DHT22;8368;48.772;8.754;2022-07-29T14:30:54;25.30;99.90
16511;DHT22;8368;48.772;8.754;2022-07-29T14:33:22;25.20;99.90
16511;DHT22;8368;48.772;8.754;2022-07-29T14:35:57;25.40;99.90
16511;DHT22;8368;48.772;8.754;2022-07-29T14:38:36;25.60;99.90
16511;DHT22;8368;48.772;8.754;2022-07-29T14:41:12;25.50;99.90
16511;DHT22;8368;48.772;8.754;2022-07-29T14:43:40;25.80;99.90
16511;DHT22;8368;48.772;8.754;2022-07-29T14:46:12;25.90;99.90
16511;DHT22;8368;48.772;8.754;2022-07-29T14:48:38;25.80;99.90
16511;DHT22;8368;48.772;8.754;2022-07-29T14:51:15;25.60;99.90
16511;DHT22;8368;48.772;8.754;2022-07-29T14:53:41;25.60;99.90
16511;DHT22;8368;48.772;8.754;2022-07-29T14:56:06;25.60;99.90
16511;DHT22;8368;48.772;8.754;2022-07-29T14:58:32;25.70;99.90
16511;DHT22;8368;48.772;8.754;2022-07-29T15:00:58;25.50;99.90
16511;DHT22;8368;48.772;8.754;2022-07-29T15:03:23;25.50;99.90
16511;DHT22;8368;48.772;8.754;2022-07-29T15:05:49;25.40;99.90
16511;DHT22;8368;48.772;8.754;2022-07-29T15:08:14;25.40;99.90
16511;DHT22;8368;48.772;8.754;2022-07-29T15:10:41;25.50;99.90
16511;DHT22;8368;48.772;8.754;2022-07-29T15:13:07;25.40;99.90
16511;DHT22;8368;48.772;8.754;2022-07-29T15:15:33;25.50;99.90
16511;DHT22;8368;48.772;8.754;2022-07-29T15:17:58;25.50;99.90
16511;DHT22;8368;48.772;8.754;2022-07-29T15:20:24;25.40;99.90
16511;DHT22;8368;48.772;8.754;2022-07-29T15:22:52;25.40;99.90
16511;DHT22;8368;48.772;8.754;2022-07-29T15:25:22;25.40;99.90
16511;DHT22;8368;48.772;8.754;2022-07-29T15:27:56;25.30;99.90
16511;DHT22;8368;48.772;8.754;2022-07-29T15:31:03;25.20;99.90
16511;DHT22;8368;48.772;8.754;2022-07-29T15:36:57;25.20;99.90
16511;DHT22;8368;48.772;8.754;2022-07-29T15:39:27;25.30;99.90
16511;DHT22;8368;48.772;8.754;2022-07-29T15:41:58;25.40;99.90
16511;DHT22;8368;48.772;8.754;2022-07-29T15:44:52;25.50;99.90
16511;DHT22;8368;48.772;8.754;2022-07-29T15:47:29;25.60;99.90
16511;DHT22;8368;48.772;8.754;2022-07-29T15:49:56;25.60;99.90
16511;DHT22;8368;48.772;8.754;2022-07-29T15:52:25;25.50;99.90
16511;DHT22;8368;48.772;8.754;2022-07-29T15:54:54;25.50;99.90
16511;DHT22;8368;48.772;8.754;2022-07-29T15:57:23;25.20;99.90
16511;DHT22;8368;48.772;8.754;2022-07-29T15:59:52;25.10;99.90
16511;DHT22;8368;48.772;8.754;2022-07-29T16:02:19;25.00;99.90
16511;DHT22;8368;48.772;8.754;2022-07-29T16:04:48;25.10;99.90
16511;DHT22;8368;48.772;8.754;2022-07-29T16:07:22;25.10;99.90
16511;DHT22;8368;48.772;8.754;2022-07-29T16:09:47;25.00;99.90
16511;DHT22;8368;48.772;8.754;2022-07-29T16:12:14;25.10;99.90
16511;DHT22;8368;48.772;8.754;2022-07-29T16:14:49;25.20;99.90
16511;DHT22;8368;48.772;8.754;2022-07-29T16:17:21;25.20;99.90
16511;DHT22;8368;48.772;8.754;2022-07-29T16:19:50;25.20;99.90
16511;DHT22;8368;48.772;8.754;2022-07-29T16:22:19;25.20;99.90
16511;DHT22;8368;48.772;8.754;2022-07-29T16:24:52;25.10;99.90
16511;DHT22;8368;48.772;8.754;2022-07-29T16:27:27;25.10;99.90
16511;DHT22;8368;48.772;8.754;2022-07-29T16:29:55;25.00;99.90
16511;DHT22;8368;48.772;8.754;2022-07-29T16:32:32;24.90;99.90
16511;DHT22;8368;48.772;8.754;2022-07-29T16:35:04;24.90;99.90
16511;DHT22;8368;48.772;8.754;2022-07-29T16:37:36;25.00;99.90